Time;durP1;ratioP1;P1;durP2;ratioP2;P2;SDS_P1;SDS_P2;PMS_P1;PMS_P2;Temp;Humidity;BMP_temperature;BMP_pressure;BME280_temperature;BME280_humidity;BME280_pressure;Samples;Min_cycle;Max_cycle;Signal;HPM_P1;HPM_P2
2024/03/30 00:06:02;;;;;;;;;;;9.10;71.40;;;;;;20914929;28;19963;-56
2024/03/30 00:16:07;;;;;;;;;;;9.20;71.40;;;;;;20913098;28;19909;-56
2024/03/30 00:26:08;;;;;;;;;;;9.20;71.40;;;;;;20912460;28;19917;-55
2024/03/30 00:36:09;;;;;;;;;;;9.20;71.80;;;;;;20912241;28;19913;-56
2024/03/30 00:46:11;;;;;;;;;;;9.30;71.40;;;;;;20911816;28;19921;-55
2024/03/30 00:56:12;;;;;;;;;;;9.30;71.30;;;;;;20924195;28;20000;-56
2024/03/30 01:06:13;;;;;;;;;;;9.30;71.10;;;;;;20928119;28;19916;-56
2024/03/30 01:16:14;;;;;;;;;;;9.50;71.10;;;;;;20926191;28;19909;-56
2024/03/30 01:26:18;;;;;;;;;;;9.40;70.40;;;;;;20926645;28;20369;-55
2024/03/30 01:36:19;;;;;;;;;;;9.40;71.30;;;;;;20925837;28;19942;-57
2024/03/30 01:46:21;;;;;;;;;;;9.50;71.00;;;;;;20923578;28;19964;-55
2024/03/30 01:56:23;;;;;;;;;;;9.40;70.90;;;;;;20922657;28;19966;-56
2024/03/30 02:06:26;;;;;;;;;;;9.40;70.90;;;;;;20920937;28;19917;-56
2024/03/30 02:16:29;;;;;;;;;;;9.40;70.90;;;;;;20922853;28;20400;-56
2024/03/30 02:26:30;;;;;;;;;;;9.30;71.90;;;;;;20921943;28;20305;-55
2024/03/30 02:36:32;;;;;;;;;;;9.30;72.40;;;;;;20920016;28;20027;-56
2024/03/30 02:46:33;;;;;;;;;;;9.30;72.90;;;;;;20919657;28;20385;-54
2024/03/30 02:56:34;;;;;;;;;;;9.40;72.60;;;;;;20919565;28;19913;-56
2024/03/30 03:06:35;;;;;;;;;;;9.30;73.70;;;;;;20918825;28;19962;-57
2024/03/30 03:16:36;;;;;;;;;;;9.20;74.60;;;;;;20916692;28;19915;-55
2024/03/30 03:26:37;;;;;;;;;;;9.30;74.60;;;;;;20916011;28;20007;-55
2024/03/30 03:36:39;;;;;;;;;;;9.30;75.10;;;;;;20915320;28;19917;-56
2024/03/30 03:46:41;;;;;;;;;;;9.20;75.50;;;;;;20914269;28;19928;-55
2024/03/30 03:56:43;;;;;;;;;;;9.20;75.20;;;;;;20913882;28;19923;-55
2024/03/30 04:06:44;;;;;;;;;;;9.30;75.80;;;;;;20913277;28;19960;-56
2024/03/30 04:16:46;;;;;;;;;;;9.20;76.30;;;;;;20914218;28;19916;-55
2024/03/30 04:26:47;;;;;;;;;;;9.20;76.40;;;;;;20917209;28;19917;-55
2024/03/30 04:36:48;;;;;;;;;;;9.30;76.40;;;;;;20929395;28;19931;-56
2024/03/30 04:46:49;;;;;;;;;;;9.20;77.10;;;;;;20928363;28;20023;-55
2024/03/30 04:56:51;;;;;;;;;;;9.20;76.90;;;;;;20927608;28;19913;-56
2024/03/30 05:06:52;;;;;;;;;;;9.30;77.00;;;;;;20928155;28;20361;-56
2024/03/30 05:16:52;;;;;;;;;;;9.30;77.10;;;;;;20927517;28;19979;-56
2024/03/30 05:26:53;;;;;;;;;;;9.20;77.20;;;;;;20926292;28;19952;-55
2024/03/30 05:36:55;;;;;;;;;;;9.20;77.60;;;;;;20925818;28;19909;-55
2024/03/30 05:46:56;;;;;;;;;;;9.30;77.30;;;;;;20924143;28;20390;-56
2024/03/30 05:56:57;;;;;;;;;;;9.30;77.40;;;;;;20924173;28;19920;-55
2024/03/30 06:06:58;;;;;;;;;;;9.30;77.50;;;;;;20922228;28;19923;-56
2024/03/30 06:16:59;;;;;;;;;;;9.30;77.70;;;;;;20921345;28;19943;-56
2024/03/30 06:27:00;;;;;;;;;;;9.20;77.00;;;;;;20920569;28;19957;-55
2024/03/30 06:37:01;;;;;;;;;;;9.20;77.10;;;;;;20920097;28;19909;-54
2024/03/30 06:47:03;;;;;;;;;;;9.30;76.70;;;;;;20917012;28;19927;-56
2024/03/30 06:57:04;;;;;;;;;;;9.30;76.60;;;;;;20919596;28;19928;-56
2024/03/30 07:07:05;;;;;;;;;;;9.40;76.50;;;;;;20918525;28;20376;-56
2024/03/30 07:17:07;;;;;;;;;;;9.50;75.90;;;;;;20918016;28;19995;-56
2024/03/30 07:27:08;;;;;;;;;;;9.50;76.30;;;;;;20915881;28;19963;-55
2024/03/30 07:37:09;;;;;;;;;;;9.70;75.60;;;;;;20916619;28;19916;-56
2024/03/30 07:47:12;;;;;;;;;;;9.80;74.70;;;;;;20915264;28;20397;-55
2024/03/30 07:57:13;;;;;;;;;;;9.80;74.20;;;;;;20915463;28;19913;-55
2024/03/30 08:07:14;;;;;;;;;;;10.00;74.30;;;;;;20914244;28;20424;-55
2024/03/30 08:17:15;;;;;;;;;;;10.10;74.20;;;;;;20913406;28;19909;-56
2024/03/30 08:27:16;;;;;;;;;;;10.30;73.60;;;;;;20912998;28;19923;-56
2024/03/30 08:37:17;;;;;;;;;;;10.50;70.80;;;;;;20913094;28;19983;-57
2024/03/30 08:47:19;;;;;;;;;;;10.50;70.10;;;;;;20911570;28;20377;-56
2024/03/30 08:57:20;;;;;;;;;;;10.60;70.50;;;;;;20912113;28;19916;-55
2024/03/30 09:07:21;;;;;;;;;;;10.90;68.50;;;;;;20910732;28;19917;-56
2024/03/30 09:17:23;;;;;;;;;;;11.20;68.60;;;;;;20923440;28;19912;-57
2024/03/30 09:27:24;;;;;;;;;;;11.20;67.80;;;;;;20926550;28;19963;-56
2024/03/30 09:37:25;;;;;;;;;;;11.30;66.30;;;;;;20925888;28;20275;-56
2024/03/30 09:47:26;;;;;;;;;;;11.40;66.50;;;;;;20925131;28;19927;-56
2024/03/30 09:57:29;;;;;;;;;;;11.50;64.80;;;;;;20924581;28;19913;-56
2024/03/30 10:07:34;;;;;;;;;;;11.20;66.40;;;;;;20923553;28;20354;-56
2024/03/30 10:17:35;;;;;;;;;;;11.40;66.50;;;;;;20921283;28;19987;-56
2024/03/30 10:27:36;;;;;;;;;;;11.70;64.40;;;;;;20919720;28;19916;-56
2024/03/30 10:37:37;;;;;;;;;;;11.70;65.80;;;;;;20919925;28;20373;-56
2024/03/30 10:47:38;;;;;;;;;;;11.70;69.20;;;;;;20919604;28;19951;-57
2024/03/30 10:57:39;;;;;;;;;;;11.70;70.10;;;;;;20918448;28;19920;-56
2024/03/30 11:07:40;;;;;;;;;;;11.90;71.10;;;;;;20918724;28;19956;-57
2024/03/30 11:17:50;;;;;;;;;;;12.30;69.40;;;;;;20916635;28;19909;-56
2024/03/30 11:28:09;;;;;;;;;;;12.70;64.70;;;;;;20917179;28;19938;-56
2024/03/30 11:38:11;;;;;;;;;;;12.90;61.80;;;;;;20916592;28;19916;-55
2024/03/30 11:48:13;;;;;;;;;;;13.00;61.60;;;;;;20914818;28;19925;-56
2024/03/30 11:58:23;;;;;;;;;;;13.10;58.70;;;;;;20913826;28;19920;-56
2024/03/30 12:08:33;;;;;;;;;;;13.20;58.20;;;;;;20913854;28;19917;-56
2024/03/30 12:18:34;;;;;;;;;;;13.40;58.30;;;;;;20912971;28;19909;-56
2024/03/30 12:28:35;;;;;;;;;;;13.60;57.10;;;;;;20912556;28;19917;-57
2024/03/30 12:38:41;;;;;;;;;;;13.60;56.10;;;;;;20912798;28;19991;-56
2024/03/30 12:48:44;;;;;;;;;;;13.60;56.00;;;;;;20917535;28;19960;-56
2024/03/30 12:58:46;;;;;;;;;;;13.70;53.50;;;;;;20927391;28;19917;-56
2024/03/30 13:08:50;;;;;;;;;;;13.50;53.90;;;;;;20926577;28;20027;-56
2024/03/30 13:18:54;;;;;;;;;;;13.30;53.80;;;;;;20925958;28;19910;-57
2024/03/30 13:28:55;;;;;;;;;;;13.20;53.70;;;;;;20926474;28;19917;-57
2024/03/30 13:38:57;;;;;;;;;;;13.30;53.50;;;;;;20924996;28;19909;-57
2024/03/30 13:49:03;;;;;;;;;;;13.60;52.20;;;;;;20925153;28;19920;-56
2024/03/30 13:59:05;;;;;;;;;;;13.70;51.40;;;;;;20922960;28;19913;-56
2024/03/30 14:09:09;;;;;;;;;;;13.60;53.90;;;;;;20923777;28;19923;-56
2024/03/30 14:19:10;;;;;;;;;;;13.40;55.60;;;;;;20921372;28;19913;-56
2024/03/30 14:29:11;;;;;;;;;;;13.50;55.70;;;;;;20922254;28;19917;-56
2024/03/30 14:39:14;;;;;;;;;;;13.20;61.80;;;;;;20919563;28;19916;-56
2024/03/30 14:49:16;;;;;;;;;;;13.00;65.90;;;;;;20918281;28;20344;-59
2024/03/30 14:59:17;;;;;;;;;;;12.80;65.90;;;;;;20917333;28;19919;-55
2024/03/30 15:09:19;;;;;;;;;;;12.70;64.90;;;;;;20918369;28;19921;-55
2024/03/30 15:19:21;;;;;;;;;;;12.60;66.20;;;;;;20916866;28;19909;-57
2024/03/30 15:29:22;;;;;;;;;;;12.40;66.00;;;;;;20916003;28;19917;-57
2024/03/30 15:39:26;;;;;;;;;;;12.40;65.60;;;;;;20915232;28;19912;-57
2024/03/30 15:49:27;;;;;;;;;;;12.40;65.50;;;;;;20914434;28;19921;-57
2024/03/30 15:59:28;;;;;;;;;;;12.50;65.70;;;;;;20913854;28;19916;-57
2024/03/30 16:09:34;;;;;;;;;;;12.50;66.20;;;;;;20913851;28;20271;-57
2024/03/30 16:19:37;;;;;;;;;;;12.40;65.60;;;;;;20912408;28;19913;-57
2024/03/30 16:29:38;;;;;;;;;;;12.40;67.10;;;;;;20911758;28;19920;-57
2024/03/30 16:39:39;;;;;;;;;;;12.20;67.90;;;;;;20911732;28;19924;-57
2024/03/30 16:49:40;;;;;;;;;;;12.10;68.20;;;;;;20911182;28;19947;-56
2024/03/30 16:59:41;;;;;;;;;;;11.70;69.10;;;;;;20911921;28;20309;-56
2024/03/30 17:09:41;;;;;;;;;;;11.20;67.70;;;;;;20910323;28;19916;-56
2024/03/30 17:19:47;;;;;;;;;;;10.90;69.20;;;;;;20910257;28;19999;-57
2024/03/30 17:29:48;;;;;;;;;;;10.80;68.30;;;;;;20910626;28;20269;-56
2024/03/30 17:39:49;;;;;;;;;;;10.80;70.20;;;;;;20923839;28;19909;-55
2024/03/30 17:49:50;;;;;;;;;;;10.70;72.20;;;;;;20923555;28;20271;-56
2024/03/30 17:59:51;;;;;;;;;;;10.80;72.40;;;;;;20922240;28;19916;-55
2024/03/30 18:09:52;;;;;;;;;;;10.90;72.00;;;;;;20923204;28;19917;-55
2024/03/30 18:19:53;;;;;;;;;;;10.80;72.20;;;;;;20921111;28;19999;-57
2024/03/30 18:29:54;;;;;;;;;;;10.80;72.70;;;;;;20920184;28;19986;-55
2024/03/30 18:39:55;;;;;;;;;;;10.80;72.60;;;;;;20919630;28;19909;-57
2024/03/30 18:49:56;;;;;;;;;;;10.80;73.00;;;;;;20917274;28;19974;-55
2024/03/30 18:59:57;;;;;;;;;;;10.60;73.40;;;;;;20918834;28;20282;-55
2024/03/30 19:10:00;;;;;;;;;;;10.60;73.10;;;;;;20917997;28;19959;-56
2024/03/30 19:20:02;;;;;;;;;;;10.60;73.70;;;;;;20916521;28;19913;-57
2024/03/30 19:30:04;;;;;;;;;;;10.70;73.80;;;;;;20914232;28;19917;-56
2024/03/30 19:40:08;;;;;;;;;;;10.50;74.00;;;;;;20913596;28;20377;-56
2024/03/30 19:50:09;;;;;;;;;;;10.60;74.70;;;;;;20916165;28;19921;-56
2024/03/30 20:00:10;;;;;;;;;;;10.70;74.60;;;;;;20914909;28;19993;-56
2024/03/30 20:10:12;;;;;;;;;;;10.60;74.70;;;;;;20914659;28;20278;-55
2024/03/30 20:20:14;;;;;;;;;;;10.60;75.10;;;;;;20912938;28;19915;-57
2024/03/30 20:30:15;;;;;;;;;;;10.60;75.10;;;;;;20913546;28;20336;-56
2024/03/30 20:40:16;;;;;;;;;;;10.60;74.70;;;;;;20913486;28;19916;-56
2024/03/30 20:50:17;;;;;;;;;;;10.70;74.10;;;;;;20910796;28;19966;-56
2024/03/30 21:00:18;;;;;;;;;;;10.70;73.50;;;;;;20911182;28;20381;-57
2024/03/30 21:10:19;;;;;;;;;;;10.60;73.30;;;;;;20917904;28;20012;-56
2024/03/30 21:20:21;;;;;;;;;;;10.70;73.10;;;;;;20927162;28;19913;-56
2024/03/30 21:30:22;;;;;;;;;;;10.70;73.00;;;;;;20927926;28;19939;-57
2024/03/30 21:40:23;;;;;;;;;;;10.60;73.00;;;;;;20925962;28;19912;-56
2024/03/30 21:50:24;;;;;;;;;;;10.50;72.60;;;;;;20926188;28;19944;-57
2024/03/30 22:00:25;;;;;;;;;;;10.40;73.70;;;;;;20924574;28;19917;-55
2024/03/30 22:10:26;;;;;;;;;;;10.40;74.20;;;;;;20923014;28;19924;-56
2024/03/30 22:20:28;;;;;;;;;;;10.40;75.30;;;;;;20922212;28;19944;-57
2024/03/30 22:30:29;;;;;;;;;;;10.30;74.70;;;;;;20921189;28;19916;-56
2024/03/30 22:40:34;;;;;;;;;;;9.90;75.50;;;;;;20921746;28;19920;-55
2024/03/30 22:50:37;;;;;;;;;;;9.70;71.70;;;;;;20919598;28;19943;-55
2024/03/30 23:00:38;;;;;;;;;;;9.60;71.10;;;;;;20920260;28;19917;-56
2024/03/30 23:10:40;;;;;;;;;;;9.50;71.70;;;;;;20917987;28;19931;-57
2024/03/30 23:20:41;;;;;;;;;;;9.50;72.30;;;;;;20917377;28;19913;-55
2024/03/30 23:30:42;;;;;;;;;;;9.40;72.50;;;;;;20917500;28;20427;-57
2024/03/30 23:40:43;;;;;;;;;;;9.30;72.20;;;;;;20915722;28;19913;-56
2024/03/30 23:50:44;;;;;;;;;;;9.30;72.80;;;;;;20917342;28;19921;-55
